Time;durP1;ratioP1;P1;durP2;ratioP2;P2;SDS_P1;SDS_P2;PMS_P1;PMS_P2;Temp;Humidity;BMP_temperature;BMP_pressure;BME280_temperature;BME280_humidity;BME280_pressure;Samples;Min_cycle;Max_cycle;Signal;HPM_P1;HPM_P2
2022/05/15 00:01:44;;;;;;;9.50;3.70;;;20.70;51.70;;;;;;5091409;28;20192;-65
2022/05/15 00:04:10;;;;;;;5.97;3.20;;;20.70;52.30;;;;;;5092175;28;20652;-66
2022/05/15 00:06:35;;;;;;;7.68;3.78;;;20.70;51.70;;;;;;5091290;28;20225;-65
2022/05/15 00:09:01;;;;;;;8.20;3.70;;;20.60;51.70;;;;;;5092212;28;20173;-66
2022/05/15 00:11:26;;;;;;;7.25;3.60;;;20.60;51.70;;;;;;5092474;28;20174;-67
2022/05/15 00:13:52;;;;;;;9.40;4.07;;;20.60;51.70;;;;;;5091425;28;20177;-67
2022/05/15 00:16:17;;;;;;;5.93;3.03;;;20.60;51.70;;;;;;5092360;28;20205;-67
2022/05/15 00:18:43;;;;;;;7.93;3.80;;;20.60;51.80;;;;;;5091897;28;20174;-66
2022/05/15 00:21:09;;;;;;;6.13;3.78;;;20.60;51.80;;;;;;5091716;28;20185;-67
2022/05/15 00:23:34;;;;;;;8.75;3.78;;;20.60;51.80;;;;;;5092137;28;20196;-66
2022/05/15 00:26:00;;;;;;;6.97;3.00;;;20.60;51.80;;;;;;5092335;28;20197;-67
2022/05/15 00:28:26;;;;;;;5.30;2.92;;;20.60;51.80;;;;;;5092295;28;20199;-66
2022/05/15 00:30:51;;;;;;;6.40;2.92;;;20.60;51.90;;;;;;5095607;28;20162;-66
2022/05/15 00:33:19;;;;;;;6.90;3.75;;;20.60;51.90;;;;;;5096023;28;20181;-66
2022/05/15 00:35:45;;;;;;;5.32;3.25;;;20.50;51.90;;;;;;5094882;28;20178;-66
2022/05/15 00:38:11;;;;;;;5.05;2.88;;;20.50;51.90;;;;;;5095878;28;20534;-66
2022/05/15 00:40:38;;;;;;;7.10;3.55;;;20.60;51.90;;;;;;5095465;28;20594;-66
2022/05/15 00:43:04;;;;;;;6.82;3.47;;;20.50;51.90;;;;;;5094921;28;20227;-66
2022/05/15 00:45:30;;;;;;;7.88;3.75;;;20.60;51.90;;;;;;5094421;28;20186;-67
2022/05/15 00:47:55;;;;;;;5.57;3.20;;;20.50;52.00;;;;;;5095366;28;20658;-66
2022/05/15 00:50:28;;;;;;;5.65;3.08;;;20.50;52.00;;;;;;5095017;28;20691;-66
2022/05/15 00:52:56;;;;;;;5.65;3.15;;;20.50;52.00;;;;;;5093993;28;20645;-66
2022/05/15 00:55:27;;;;;;;6.78;3.22;;;20.50;52.00;;;;;;5077701;28;20257;-67
2022/05/15 00:57:55;;;;;;;7.70;3.35;;;20.50;52.00;;;;;;5076981;28;20221;-67
2022/05/15 01:00:26;;;;;;;5.10;2.92;;;20.50;52.00;;;;;;5095341;28;20197;-66
2022/05/15 01:03:04;;;;;;;6.30;3.03;;;20.50;52.10;;;;;;5093277;28;20177;-66
2022/05/15 01:05:32;;;;;;;4.28;2.70;;;20.50;52.10;;;;;;5093833;28;20266;-66
2022/05/15 01:07:58;;;;;;;6.43;3.20;;;20.50;52.10;;;;;;5094895;28;20177;-65
2022/05/15 01:10:23;;;;;;;5.70;3.00;;;20.40;52.10;;;;;;5094332;28;20181;-68
2022/05/15 01:12:49;;;;;;;4.82;2.60;;;20.40;52.10;;;;;;5094678;28;20177;-67
2022/05/15 01:15:18;;;;;;;5.50;2.85;;;20.40;52.10;;;;;;5095223;28;20196;-68
2022/05/15 01:17:44;;;;;;;5.90;2.90;;;20.50;52.20;;;;;;5093972;28;20213;-67
2022/05/15 01:20:13;;;;;;;6.30;3.10;;;20.40;52.20;;;;;;5094931;28;20217;-67
2022/05/15 01:22:39;;;;;;;5.32;3.17;;;20.40;52.80;;;;;;5094457;28;20648;-67
2022/05/15 01:25:10;;;;;;;6.85;3.40;;;20.40;52.20;;;;;;5093985;28;20648;-67
2022/05/15 01:27:35;;;;;;;6.43;3.13;;;20.40;52.20;;;;;;5093518;28;20181;-66
2022/05/15 01:30:01;;;;;;;4.45;2.50;;;20.40;52.30;;;;;;5093691;28;20192;-66
2022/05/15 01:32:26;;;;;;;8.15;3.53;;;20.30;52.20;;;;;;5092830;28;20182;-66
2022/05/15 01:34:52;;;;;;;5.18;2.70;;;20.40;52.30;;;;;;5094345;28;20552;-66
2022/05/15 01:37:17;;;;;;;4.40;2.53;;;20.40;52.30;;;;;;5094473;28;20217;-66
2022/05/15 01:39:43;;;;;;;5.72;2.65;;;20.40;52.40;;;;;;5093144;28;20248;-66
2022/05/15 01:42:08;;;;;;;4.68;2.70;;;20.40;52.30;;;;;;5094155;28;20173;-66
2022/05/15 01:44:34;;;;;;;6.00;3.22;;;20.40;52.40;;;;;;5094619;28;20477;-66
2022/05/15 01:46:59;;;;;;;5.57;3.25;;;20.40;52.40;;;;;;5093579;28;20166;-66
2022/05/15 01:49:25;;;;;;;5.50;2.92;;;20.40;52.40;;;;;;5094549;28;20181;-66
2022/05/15 01:51:50;;;;;;;6.68;3.10;;;20.30;52.30;;;;;;5094070;28;20177;-67
2022/05/15 01:54:16;;;;;;;8.45;3.70;;;20.30;52.40;;;;;;5093361;28;20273;-67
2022/05/15 01:56:42;;;;;;;5.38;3.20;;;20.30;52.40;;;;;;5093993;28;20213;-66
2022/05/15 01:59:08;;;;;;;6.40;3.35;;;20.30;52.40;;;;;;5093570;28;20182;-67
2022/05/15 02:01:34;;;;;;;4.95;2.92;;;20.30;52.40;;;;;;5094180;28;20235;-66
2022/05/15 02:04:00;;;;;;;5.07;3.05;;;20.30;52.50;;;;;;5093986;28;20166;-66
2022/05/15 02:06:25;;;;;;;6.25;3.20;;;20.30;52.40;;;;;;5093148;28;20240;-66
2022/05/15 02:08:50;;;;;;;6.90;3.00;;;20.30;52.50;;;;;;5093608;28;20182;-66
2022/05/15 02:11:16;;;;;;;5.50;3.00;;;20.30;52.50;;;;;;5094081;28;20205;-67
2022/05/15 02:13:42;;;;;;;3.42;2.70;;;20.30;52.50;;;;;;5092998;28;20173;-67
2022/05/15 02:16:07;;;;;;;4.35;2.90;;;20.30;52.60;;;;;;5093819;28;20277;-67
2022/05/15 02:18:33;;;;;;;5.70;2.70;;;20.30;52.50;;;;;;5093826;28;20197;-67
2022/05/15 02:20:58;;;;;;;5.50;3.00;;;20.30;52.60;;;;;;5092600;28;20266;-68
2022/05/15 02:23:26;;;;;;;7.57;2.78;;;20.30;52.60;;;;;;5093171;28;20186;-68
2022/05/15 02:25:52;;;;;;;5.95;3.42;;;20.30;52.60;;;;;;5093131;28;20196;-67
2022/05/15 02:28:17;;;;;;;5.32;3.08;;;20.20;52.60;;;;;;5092381;28;20170;-66
2022/05/15 02:30:43;;;;;;;6.70;2.88;;;20.30;52.60;;;;;;5092776;28;20215;-66
2022/05/15 02:33:08;;;;;;;5.05;2.88;;;20.20;52.60;;;;;;5093059;28;20239;-66
2022/05/15 02:35:34;;;;;;;6.45;3.40;;;20.30;52.70;;;;;;5092229;28;20548;-66
2022/05/15 02:37:59;;;;;;;4.65;2.90;;;20.20;52.60;;;;;;5093016;28;20507;-66
2022/05/15 02:40:25;;;;;;;4.45;2.80;;;20.20;52.60;;;;;;5092933;28;20616;-66
2022/05/15 02:42:53;;;;;;;3.75;2.60;;;20.20;52.60;;;;;;5092115;28;20262;-66
2022/05/15 02:45:18;;;;;;;4.32;2.67;;;20.20;52.70;;;;;;5093035;28;20174;-67
2022/05/15 02:47:44;;;;;;;3.58;2.50;;;20.20;52.70;;;;;;5092605;28;20185;-66
2022/05/15 02:52:54;;;;;;;4.68;2.60;;;20.20;52.70;;;;;;5091626;28;20220;-67
2022/05/15 02:55:20;;;;;;;5.25;3.28;;;20.20;52.70;;;;;;5092749;28;20201;-67
2022/05/15 02:57:46;;;;;;;4.80;3.10;;;20.20;52.70;;;;;;5092131;28;20292;-67
2022/05/15 03:00:12;;;;;;;5.20;2.60;;;20.20;52.80;;;;;;5091451;28;20557;-66
2022/05/15 03:02:38;;;;;;;4.43;2.55;;;20.20;52.70;;;;;;5091521;28;20700;-66
2022/05/15 03:05:05;;;;;;;4.45;2.60;;;20.20;52.80;;;;;;5092358;28;20312;-66
2022/05/15 03:07:30;;;;;;;4.47;2.70;;;20.20;52.80;;;;;;5092602;28;20177;-66
2022/05/15 03:09:56;;;;;;;4.78;2.63;;;20.10;52.80;;;;;;5091708;28;20211;-67
2022/05/15 03:12:21;;;;;;;4.20;2.63;;;20.10;52.80;;;;;;5092287;28;20596;-67
2022/05/15 03:14:47;;;;;;;4.40;2.55;;;20.10;52.80;;;;;;5092257;28;20170;-68
2022/05/15 03:17:12;;;;;;;5.78;3.00;;;20.10;52.80;;;;;;5091157;28;20220;-67
2022/05/15 03:19:38;;;;;;;3.90;2.30;;;20.10;52.80;;;;;;5092034;28;20223;-68
2022/05/15 03:22:03;;;;;;;4.55;2.58;;;20.10;52.80;;;;;;5092580;28;20193;-67
2022/05/15 03:24:29;;;;;;;3.47;2.83;;;20.10;53.40;;;;;;5091875;28;20189;-67
2022/05/15 03:26:54;;;;;;;4.63;2.75;;;20.10;52.80;;;;;;5092086;28;20599;-67
2022/05/15 03:29:20;;;;;;;3.97;2.17;;;20.10;52.80;;;;;;5092272;28;20170;-67
2022/05/15 03:31:46;;;;;;;4.57;2.80;;;20.10;52.80;;;;;;5090890;28;20257;-66
2022/05/15 03:34:12;;;;;;;5.03;2.88;;;20.10;52.80;;;;;;5092058;28;20177;-66
2022/05/15 03:36:38;;;;;;;5.25;2.85;;;20.10;52.90;;;;;;5091758;28;20706;-66
2022/05/15 03:39:06;;;;;;;5.30;3.17;;;20.10;52.90;;;;;;5091927;28;20177;-66
2022/05/15 03:41:32;;;;;;;5.65;3.20;;;20.10;52.90;;;;;;5092057;28;20531;-66
2022/05/15 03:43:58;;;;;;;4.53;3.15;;;20.10;52.90;;;;;;5091988;28;20174;-66
2022/05/15 03:46:23;;;;;;;5.63;2.90;;;20.10;52.90;;;;;;5091366;28;20534;-66
2022/05/15 03:48:50;;;;;;;5.22;3.10;;;20.00;52.90;;;;;;5091961;28;20173;-66
2022/05/15 03:51:16;;;;;;;5.22;2.70;;;20.10;53.00;;;;;;5091983;28;20188;-67
2022/05/15 03:53:42;;;;;;;5.75;2.65;;;20.00;52.90;;;;;;5091026;28;20660;-67
2022/05/15 03:56:07;;;;;;;3.70;2.13;;;20.00;52.90;;;;;;5091973;28;20201;-67
2022/05/15 03:58:35;;;;;;;4.45;2.70;;;20.00;52.90;;;;;;5092014;28;20182;-67
2022/05/15 04:01:00;;;;;;;4.28;2.75;;;20.00;52.90;;;;;;5091272;28;20252;-67
2022/05/15 04:03:26;;;;;;;4.85;2.65;;;20.00;53.00;;;;;;5092651;28;20257;-66
2022/05/15 04:05:51;;;;;;;5.45;3.17;;;20.00;53.00;;;;;;5094707;28;20263;-66
2022/05/15 04:08:17;;;;;;;3.88;3.00;;;20.00;53.00;;;;;;5095975;28;20284;-66
2022/05/15 04:10:42;;;;;;;4.00;2.22;;;20.00;53.00;;;;;;5095523;28;20194;-67
2022/05/15 04:13:08;;;;;;;2.97;2.10;;;20.00;52.90;;;;;;5095010;28;20700;-67
2022/05/15 04:15:34;;;;;;;3.67;2.58;;;20.00;53.00;;;;;;5095711;28;20180;-67
2022/05/15 04:17:59;;;;;;;3.72;2.58;;;20.00;53.00;;;;;;5094882;28;20209;-67
2022/05/15 04:20:26;;;;;;;5.20;2.50;;;20.00;53.00;;;;;;5094717;28;20201;-67
2022/05/15 04:22:52;;;;;;;3.90;2.33;;;20.00;53.00;;;;;;5095243;28;20174;-67
2022/05/15 04:25:17;;;;;;;5.50;2.45;;;20.00;53.00;;;;;;5095224;28;20177;-67
2022/05/15 04:27:43;;;;;;;4.32;2.53;;;20.10;53.00;;;;;;5094475;28;20201;-66
2022/05/15 04:30:10;;;;;;;4.20;2.50;;;20.00;53.00;;;;;;5095139;28;20274;-66
2022/05/15 04:32:36;;;;;;;4.68;2.47;;;20.00;52.90;;;;;;5094600;28;20170;-66
2022/05/15 04:35:02;;;;;;;3.40;2.38;;;20.00;53.00;;;;;;5094443;28;20196;-66
2022/05/15 04:37:27;;;;;;;4.53;2.38;;;20.10;53.00;;;;;;5094654;28;20210;-66
2022/05/15 04:39:53;;;;;;;5.00;3.05;;;20.00;53.00;;;;;;5094454;28;20174;-66
2022/05/15 04:42:18;;;;;;;4.93;2.55;;;20.00;53.00;;;;;;5094163;28;20503;-67
2022/05/15 04:44:45;;;;;;;4.30;2.47;;;20.00;53.00;;;;;;5094390;28;20181;-66
2022/05/15 04:47:11;;;;;;;5.78;3.20;;;20.10;53.00;;;;;;5094338;28;20188;-66
2022/05/15 04:49:36;;;;;;;4.35;2.55;;;20.00;53.00;;;;;;5093625;28;20170;-67
2022/05/15 04:52:02;;;;;;;3.67;2.83;;;20.00;53.00;;;;;;5094642;28;20663;-66
2022/05/15 04:54:27;;;;;;;4.05;2.05;;;20.00;53.00;;;;;;5094537;28;20185;-67
2022/05/15 04:56:53;;;;;;;4.85;2.25;;;20.00;53.00;;;;;;5093462;28;20205;-66
2022/05/15 04:59:18;;;;;;;4.22;2.35;;;20.00;53.00;;;;;;5094549;28;20178;-67
2022/05/15 05:01:44;;;;;;;4.40;2.40;;;20.00;53.00;;;;;;5094151;28;20176;-66
2022/05/15 05:04:13;;;;;;;5.13;2.80;;;20.00;53.00;;;;;;5093595;28;20265;-65
2022/05/15 05:06:38;;;;;;;5.00;2.80;;;20.00;53.00;;;;;;5093976;28;20225;-67
2022/05/15 05:09:04;;;;;;;3.90;2.70;;;20.00;53.00;;;;;;5093755;28;20174;-67
2022/05/15 05:11:29;;;;;;;3.72;2.70;;;20.00;53.00;;;;;;5094320;28;20212;-67
2022/05/15 05:13:55;;;;;;;4.57;2.20;;;20.00;53.00;;;;;;5094012;28;20162;-68
2022/05/15 05:16:20;;;;;;;4.05;2.60;;;20.10;53.00;;;;;;5092205;28;20193;-68
2022/05/15 05:18:46;;;;;;;4.03;2.42;;;20.00;53.00;;;;;;5093803;28;20624;-68
2022/05/15 05:21:11;;;;;;;5.00;2.63;;;20.00;53.00;;;;;;5094343;28;20182;-68
2022/05/15 05:23:37;;;;;;;4.00;2.28;;;20.00;53.00;;;;;;5093204;28;20166;-68
2022/05/15 05:26:03;;;;;;;3.33;2.40;;;20.00;53.00;;;;;;5094419;28;20204;-68
2022/05/15 05:28:30;;;;;;;4.35;2.50;;;20.00;53.00;;;;;;5093261;28;20186;-68
2022/05/15 05:30:55;;;;;;;3.95;2.20;;;20.00;53.00;;;;;;5092846;28;20174;-68
2022/05/15 05:33:21;;;;;;;3.50;2.25;;;20.00;53.00;;;;;;5093988;28;20174;-67
2022/05/15 05:35:47;;;;;;;2.97;2.38;;;20.00;53.00;;;;;;5093333;28;20189;-67
2022/05/15 05:38:12;;;;;;;4.78;2.63;;;20.00;53.00;;;;;;5093259;28;20174;-67
2022/05/15 05:40:38;;;;;;;2.88;2.15;;;20.00;53.00;;;;;;5093372;28;20185;-67
2022/05/15 05:43:03;;;;;;;5.57;2.90;;;20.00;53.00;;;;;;5093584;28;20189;-68
2022/05/15 05:45:29;;;;;;;4.25;2.47;;;20.00;53.10;;;;;;5093054;28;20213;-68
2022/05/15 05:47:55;;;;;;;3.28;2.38;;;20.00;53.00;;;;;;5093870;28;20265;-68
2022/05/15 05:50:22;;;;;;;4.20;2.38;;;20.10;53.10;;;;;;5094053;28;20186;-68
2022/05/15 05:52:47;;;;;;;4.13;2.63;;;20.00;53.00;;;;;;5092879;28;20174;-68
2022/05/15 05:55:14;;;;;;;3.92;2.67;;;20.00;53.00;;;;;;5093877;28;20165;-68
2022/05/15 05:57:40;;;;;;;3.10;2.33;;;20.00;53.00;;;;;;5093285;28;20214;-68
2022/05/15 06:00:07;;;;;;;4.30;2.67;;;20.00;53.00;;;;;;5092912;28;20729;-68
2022/05/15 06:02:32;;;;;;;2.97;2.13;;;20.00;53.00;;;;;;5093397;28;20192;-67
2022/05/15 06:04:58;;;;;;;3.72;2.03;;;20.10;53.00;;;;;;5093405;28;20300;-67
2022/05/15 06:07:25;;;;;;;3.70;2.20;;;20.00;53.00;;;;;;5093194;28;20177;-67
2022/05/15 06:09:50;;;;;;;3.17;2.58;;;20.00;53.00;;;;;;5093297;28;20269;-67
2022/05/15 06:12:18;;;;;;;4.15;2.50;;;20.00;53.00;;;;;;5093277;28;20269;-68
2022/05/15 06:14:43;;;;;;;3.75;2.45;;;20.10;53.10;;;;;;5092925;28;20568;-68
2022/05/15 06:17:09;;;;;;;3.40;2.22;;;20.10;53.00;;;;;;5093281;28;20296;-68
2022/05/15 06:19:35;;;;;;;2.72;2.42;;;20.10;53.00;;;;;;5092439;28;20261;-68
2022/05/15 06:22:00;;;;;;;2.50;2.30;;;20.10;53.00;;;;;;5093446;28;20682;-68
2022/05/15 06:24:26;;;;;;;3.70;2.50;;;20.10;53.00;;;;;;5093153;28;20209;-69
2022/05/15 06:26:52;;;;;;;5.20;2.55;;;20.10;53.00;;;;;;5092069;28;20217;-68
2022/05/15 06:29:18;;;;;;;3.78;2.58;;;20.10;53.00;;;;;;5092904;28;20170;-68
2022/05/15 06:31:43;;;;;;;3.75;2.42;;;20.10;53.00;;;;;;5092484;28;20235;-67
2022/05/15 06:34:09;;;;;;;3.13;2.10;;;20.10;52.90;;;;;;5092005;28;20692;-67
2022/05/15 06:36:34;;;;;;;4.18;2.20;;;20.10;53.00;;;;;;5092230;28;20197;-67
2022/05/15 06:39:00;;;;;;;3.75;2.45;;;20.10;52.90;;;;;;5092676;28;20175;-67
2022/05/15 06:41:25;;;;;;;4.40;2.40;;;20.10;52.90;;;;;;5091832;28;20166;-67
2022/05/15 06:43:51;;;;;;;3.38;2.17;;;20.10;52.90;;;;;;5092059;28;20173;-67
2022/05/15 06:46:16;;;;;;;4.93;2.85;;;20.10;53.00;;;;;;5092731;28;20197;-67
2022/05/15 06:48:42;;;;;;;4.35;2.13;;;20.10;53.00;;;;;;5091444;28;20209;-68
2022/05/15 06:51:08;;;;;;;3.28;2.38;;;20.20;53.10;;;;;;5092516;28;20178;-68
2022/05/15 06:53:34;;;;;;;4.18;2.58;;;20.10;53.00;;;;;;5092409;28;20170;-68
2022/05/15 06:58:43;;;;;;;3.75;2.33;;;20.20;53.10;;;;;;5092102;28;20169;-68
2022/05/15 07:01:09;;;;;;;3.20;2.20;;;20.20;53.10;;;;;;5092295;28;20174;-68
2022/05/15 07:03:34;;;;;;;3.40;2.20;;;20.20;53.00;;;;;;5091105;28;20178;-67
2022/05/15 07:06:00;;;;;;;3.05;2.45;;;20.20;53.00;;;;;;5091775;28;20691;-67
2022/05/15 07:08:26;;;;;;;2.55;2.08;;;20.20;53.00;;;;;;5092186;28;20209;-67
2022/05/15 07:10:52;;;;;;;3.60;2.65;;;20.20;53.00;;;;;;5091145;28;20252;-68
2022/05/15 07:13:17;;;;;;;3.40;2.60;;;20.30;53.00;;;;;;5091952;28;20629;-69
2022/05/15 07:15:43;;;;;;;2.97;2.42;;;20.20;53.00;;;;;;5091124;28;20174;-69
2022/05/15 07:18:08;;;;;;;2.47;1.88;;;20.30;53.00;;;;;;5091777;28;20674;-68
2022/05/15 07:20:34;;;;;;;3.53;2.20;;;20.30;53.00;;;;;;5091968;28;20258;-69
2022/05/15 07:22:59;;;;;;;2.88;2.03;;;20.30;53.00;;;;;;5090940;28;20273;-69
2022/05/15 07:25:25;;;;;;;4.18;2.42;;;20.30;52.90;;;;;;5092069;28;20197;-69
2022/05/15 07:27:51;;;;;;;4.30;2.38;;;20.30;52.90;;;;;;5091378;28;20205;-67
2022/05/15 07:30:22;;;;;;;2.75;2.15;;;20.30;52.90;;;;;;5091127;28;20216;-68
2022/05/15 07:32:48;;;;;;;4.10;2.53;;;20.10;52.80;;;;;;5091606;28;20197;-67
2022/05/15 07:35:13;;;;;;;3.97;2.47;;;20.40;53.00;;;;;;5091799;28;20574;-68
2022/05/15 07:37:39;;;;;;;2.83;2.10;;;20.40;53.00;;;;;;5090592;28;20224;-66
2022/05/15 07:40:05;;;;;;;3.83;2.38;;;20.40;53.00;;;;;;5095654;28;20177;-66
2022/05/15 07:42:31;;;;;;;3.05;2.05;;;20.40;53.00;;;;;;5095658;28;20513;-67
2022/05/15 07:44:59;;;;;;;3.22;2.05;;;20.40;53.00;;;;;;5093310;28;20193;-66
2022/05/15 07:47:25;;;;;;;2.67;2.20;;;20.40;53.00;;;;;;5095598;28;20170;-66
2022/05/15 07:49:50;;;;;;;3.38;2.20;;;20.40;53.00;;;;;;5095277;28;20539;-67
2022/05/15 07:52:16;;;;;;;3.40;2.35;;;20.40;53.00;;;;;;5094903;28;20680;-68
2022/05/15 07:54:41;;;;;;;3.13;2.45;;;20.50;53.30;;;;;;5095164;28;20177;-68
2022/05/15 07:57:07;;;;;;;5.93;2.70;;;20.50;53.10;;;;;;5095310;28;20237;-70
2022/05/15 07:59:32;;;;;;;5.30;2.10;;;20.50;53.10;;;;;;5094835;28;20265;-68
2022/05/15 08:01:59;;;;;;;5.72;2.88;;;20.50;53.00;;;;;;5095129;28;20621;-67
2022/05/15 08:04:25;;;;;;;4.05;2.78;;;20.50;53.00;;;;;;5095546;28;20248;-67
2022/05/15 08:09:34;;;;;;;6.22;2.47;;;20.60;52.90;;;;;;5095232;28;20188;-68
2022/05/15 08:12:00;;;;;;;5.18;2.85;;;20.60;52.90;;;;;;5094575;28;20185;-70
2022/05/15 08:14:26;;;;;;;5.32;2.60;;;20.60;53.00;;;;;;5095368;28;20181;-70
2022/05/15 08:16:54;;;;;;;5.63;2.50;;;20.60;53.00;;;;;;5094683;28;20213;-70
2022/05/15 08:24:58;;;;;;;5.57;2.70;;;20.70;53.20;;;;;;5074915;28;20384;-70
2022/05/15 08:27:24;;;;;;;5.68;2.47;;;20.70;53.20;;;;;;5094321;28;20687;-71
2022/05/15 08:29:50;;;;;;;6.78;2.58;;;20.70;53.20;;;;;;5094720;28;20239;-68
2022/05/15 08:32:15;;;;;;;6.22;2.78;;;20.70;53.20;;;;;;5094793;28;20216;-69
2022/05/15 08:34:41;;;;;;;3.92;2.35;;;20.80;53.30;;;;;;5094011;28;20232;-67
2022/05/15 08:37:06;;;;;;;6.40;3.33;;;20.80;53.30;;;;;;5095056;28;20301;-67
2022/05/15 08:39:32;;;;;;;4.60;2.58;;;20.80;53.30;;;;;;5094794;28;20174;-67
2022/05/15 08:42:20;;;;;;;6.28;2.72;;;20.80;53.30;;;;;;5093532;28;20526;-68
2022/05/15 08:44:46;;;;;;;7.03;3.38;;;20.90;53.30;;;;;;5094185;28;20178;-68
2022/05/15 08:47:35;;;;;;;5.45;2.60;;;20.90;53.30;;;;;;5094111;28;20182;-69
2022/05/15 08:50:11;;;;;;;4.93;3.03;;;20.90;53.40;;;;;;5093362;28;20170;-69
2022/05/15 08:52:47;;;;;;;5.10;2.60;;;20.90;53.30;;;;;;5093057;28;20655;-69
2022/05/15 08:55:42;;;;;;;6.97;3.25;;;20.90;53.40;;;;;;5092661;28;20188;-71
2022/05/15 08:58:24;;;;;;;6.97;2.55;;;20.90;53.30;;;;;;5094524;28;20213;-71
2022/05/15 09:00:50;;;;;;;5.05;2.83;;;21.00;53.40;;;;;;5093019;28;20185;-68
2022/05/15 09:03:25;;;;;;;4.53;2.67;;;21.00;53.40;;;;;;5093684;28;20591;-68
2022/05/15 09:06:15;;;;;;;5.35;2.58;;;21.00;53.30;;;;;;5093922;28;20217;-68
2022/05/15 09:09:00;;;;;;;6.85;2.70;;;21.00;53.30;;;;;;5093543;28;20197;-68
2022/05/15 09:11:49;;;;;;;7.93;3.33;;;21.10;53.40;;;;;;5094710;28;20180;-70
2022/05/15 09:14:21;;;;;;;7.28;2.92;;;21.00;53.30;;;;;;5094460;28;20643;-70
2022/05/15 09:16:54;;;;;;;4.07;3.03;;;21.10;53.30;;;;;;5075213;28;20213;-71
2022/05/15 09:19:19;;;;;;;6.13;3.17;;;21.10;53.20;;;;;;5094160;28;20676;-73
2022/05/15 09:21:45;;;;;;;7.45;2.90;;;21.10;53.30;;;;;;5093826;28;20227;-72
2022/05/15 09:24:29;;;;;;;9.20;4.10;;;21.10;53.40;;;;;;5093340;28;20173;-72
2022/05/15 09:26:55;;;;;;;7.50;3.58;;;21.20;53.40;;;;;;5092681;28;20247;-72
2022/05/15 09:29:22;;;;;;;5.30;2.97;;;21.20;53.40;;;;;;5074954;28;20570;-73
2022/05/15 09:31:48;;;;;;;5.35;2.95;;;21.20;53.40;;;;;;5093688;28;20181;-70
2022/05/15 09:34:30;;;;;;;6.72;3.58;;;21.20;53.40;;;;;;5092708;28;20178;-71
2022/05/15 09:38:26;;;;;;;4.45;2.65;;;21.20;53.30;;;;;;5091418;28;20237;-72
2022/05/15 09:39:43;;;;;;;6.45;2.90;;;21.30;53.40;;;;;;5093450;28;20265;-72
2022/05/15 09:44:58;;;;;;;5.22;3.22;;;21.30;53.30;;;;;;5092625;28;20189;-71
2022/05/15 09:47:32;;;;;;;6.40;3.05;;;21.30;53.30;;;;;;5093380;28;20178;-73
2022/05/15 09:49:58;;;;;;;4.53;2.85;;;21.30;53.30;;;;;;5093303;28;20188;-71
2022/05/15 09:52:30;;;;;;;4.88;2.60;;;21.30;53.30;;;;;;5092688;28;20691;-71
2022/05/15 09:55:25;;;;;;;4.80;2.65;;;21.30;53.30;;;;;;5091928;28;20185;-72
2022/05/15 09:57:53;;;;;;;6.82;3.17;;;21.40;53.30;;;;;;5079103;28;20225;-70
2022/05/15 10:00:21;;;;;;;6.53;2.70;;;21.40;53.30;;;;;;5093487;28;20181;-68
2022/05/15 10:02:52;;;;;;;6.15;2.88;;;21.40;53.20;;;;;;5091106;28;20170;-66
2022/05/15 10:05:22;;;;;;;9.00;3.10;;;21.40;53.20;;;;;;5092638;28;20229;-67
2022/05/15 10:08:21;;;;;;;5.68;2.90;;;21.40;53.20;;;;;;5092843;28;20193;-65
2022/05/15 10:11:07;;;;;;;6.53;2.75;;;21.50;53.30;;;;;;5088826;28;20194;-67
2022/05/15 10:13:37;;;;;;;6.22;2.63;;;21.50;53.20;;;;;;5091028;28;20173;-67
2022/05/15 10:16:08;;;;;;;7.05;2.70;;;21.50;53.20;;;;;;5074939;28;20655;-68
2022/05/15 10:18:53;;;;;;;5.07;2.88;;;21.60;53.10;;;;;;5090476;28;20554;-67
2022/05/15 10:21:19;;;;;;;5.32;2.42;;;21.50;53.10;;;;;;5075290;28;20235;-68
2022/05/15 10:23:48;;;;;;;5.13;3.28;;;21.50;53.10;;;;;;5091083;28;20185;-68
2022/05/15 10:26:26;;;;;;;7.32;2.80;;;21.50;53.20;;;;;;5090531;28;20617;-67
2022/05/15 10:29:05;;;;;;;5.53;2.70;;;21.50;53.00;;;;;;5074434;28;20652;-70
2022/05/15 10:31:35;;;;;;;8.20;2.72;;;21.60;53.10;;;;;;5076085;28;20185;-70
2022/05/15 10:34:02;;;;;;;7.13;2.50;;;21.70;53.00;;;;;;5091856;28;20242;-67
2022/05/15 10:36:45;;;;;;;4.82;2.53;;;21.70;52.90;;;;;;5092370;28;20209;-68
2022/05/15 10:39:26;;;;;;;5.50;2.60;;;21.70;52.90;;;;;;5092377;28;20555;-68
2022/05/15 10:42:01;;;;;;;4.43;2.20;;;21.70;52.90;;;;;;5090079;28;20262;-67
2022/05/15 10:44:43;;;;;;;8.13;2.83;;;21.80;52.90;;;;;;5092390;28;20522;-68
2022/05/15 10:47:14;;;;;;;3.92;2.50;;;21.80;52.90;;;;;;5073941;28;20226;-68
2022/05/15 10:49:49;;;;;;;4.32;2.40;;;21.80;52.90;;;;;;5090470;28;20629;-66
2022/05/15 10:52:27;;;;;;;5.95;2.67;;;21.80;53.00;;;;;;5092628;28;20701;-66
2022/05/15 10:58:23;;;;;;;7.43;2.45;;;21.80;52.90;;;;;;5090732;28;20342;-66
2022/05/15 11:01:13;;;;;;;6.50;2.67;;;21.80;52.90;;;;;;5028552;28;20228;-65
2022/05/15 11:04:08;;;;;;;5.03;2.70;;;21.90;52.90;;;;;;5090218;28;20258;-65
2022/05/15 11:06:42;;;;;;;4.68;2.15;;;21.90;52.90;;;;;;5090911;28;20229;-69
2022/05/15 11:09:18;;;;;;;4.82;2.78;;;21.80;52.90;;;;;;5091763;28;20222;-70
2022/05/15 11:11:58;;;;;;;5.20;2.50;;;21.80;52.90;;;;;;5091965;28;20177;-70
2022/05/15 11:14:50;;;;;;;7.00;2.67;;;21.80;52.90;;;;;;5091578;28;20671;-71
2022/05/15 11:17:49;;;;;;;4.38;2.03;;;21.80;52.80;;;;;;5060529;28;20221;-74
2022/05/15 11:20:21;;;;;;;6.07;2.92;;;21.80;52.90;;;;;;5092525;28;20169;-72
2022/05/15 11:22:53;;;;;;;5.50;2.40;;;21.80;52.70;;;;;;5073777;28;20261;-71
2022/05/15 11:25:23;;;;;;;5.72;2.65;;;21.80;52.70;;;;;;5090749;28;20186;-74
2022/05/15 11:27:55;;;;;;;6.55;2.92;;;21.90;52.80;;;;;;5090436;28;20178;-71
2022/05/15 11:30:24;;;;;;;4.40;2.15;;;21.80;52.70;;;;;;5091357;28;20214;-71
2022/05/15 11:32:52;;;;;;;4.15;2.55;;;21.90;52.70;;;;;;5090311;28;20182;-71
2022/05/15 11:35:17;;;;;;;6.40;2.45;;;21.90;52.80;;;;;;5092166;28;20173;-72
2022/05/15 11:38:04;;;;;;;3.95;2.45;;;21.90;52.80;;;;;;5090796;28;20304;-70
2022/05/15 11:40:42;;;;;;;5.93;2.33;;;21.90;52.70;;;;;;5092430;28;20184;-71
2022/05/15 11:43:26;;;;;;;9.65;2.47;;;21.90;52.70;;;;;;5091413;28;20535;-70
2022/05/15 11:45:53;;;;;;;4.47;2.40;;;21.90;52.60;;;;;;5091902;28;20265;-69
2022/05/15 11:48:44;;;;;;;7.75;2.35;;;21.90;52.60;;;;;;5092021;28;20186;-68
2022/05/15 11:51:13;;;;;;;3.33;2.33;;;21.90;52.50;;;;;;5067627;28;20186;-69
2022/05/15 11:53:47;;;;;;;5.15;2.33;;;22.00;52.40;;;;;;5091655;28;20709;-69
2022/05/15 11:56:24;;;;;;;3.47;2.40;;;22.00;52.40;;;;;;5092109;28;20173;-69
2022/05/15 11:59:00;;;;;;;4.88;2.20;;;22.00;52.30;;;;;;5073957;28;20190;-71
2022/05/15 12:01:31;;;;;;;3.38;2.03;;;22.10;52.20;;;;;;5090649;28;20169;-71
2022/05/15 12:04:03;;;;;;;6.72;2.30;;;22.10;52.10;;;;;;5091524;28;20246;-68
2022/05/15 12:06:31;;;;;;;7.85;2.60;;;22.10;52.00;;;;;;5091662;28;20229;-69
2022/05/15 12:09:15;;;;;;;3.78;2.35;;;22.20;52.00;;;;;;5091390;28;20629;-70
2022/05/15 12:11:41;;;;;;;3.15;1.83;;;22.20;51.90;;;;;;5089281;28;20185;-70
2022/05/15 12:14:22;;;;;;;5.38;2.20;;;22.20;51.80;;;;;;5092061;28;20631;-71
2022/05/15 12:17:24;;;;;;;3.60;2.03;;;22.20;51.70;;;;;;5071382;28;20239;-70
2022/05/15 12:19:50;;;;;;;6.07;2.45;;;22.20;51.60;;;;;;5080968;28;20173;-69
2022/05/15 12:22:16;;;;;;;4.18;1.92;;;22.30;51.60;;;;;;5073758;28;20748;-70
2022/05/15 12:24:48;;;;;;;2.95;1.90;;;22.30;51.50;;;;;;5091673;28;20177;-69
2022/05/15 12:27:16;;;;;;;3.63;2.50;;;22.30;51.50;;;;;;5094419;28;20173;-71
2022/05/15 12:30:07;;;;;;;3.40;2.15;;;22.30;51.50;;;;;;5094855;28;20628;-69
2022/05/15 12:32:45;;;;;;;6.53;2.30;;;22.30;51.40;;;;;;5094680;28;20208;-69
2022/05/15 12:35:15;;;;;;;3.22;2.38;;;22.30;51.30;;;;;;5095474;28;20318;-71
2022/05/15 12:37:52;;;;;;;4.25;2.47;;;22.40;51.30;;;;;;5094885;28;20243;-69
2022/05/15 12:40:24;;;;;;;3.08;1.90;;;22.40;51.20;;;;;;5094479;28;20180;-69
2022/05/15 12:42:49;;;;;;;2.67;1.80;;;22.40;51.20;;;;;;5077323;28;20181;-69
2022/05/15 12:45:19;;;;;;;3.40;2.00;;;22.40;51.10;;;;;;5095018;28;20181;-70
2022/05/15 12:47:56;;;;;;;3.92;2.13;;;22.50;51.10;;;;;;5093917;28;20198;-68
2022/05/15 12:50:22;;;;;;;4.70;2.03;;;22.50;51.00;;;;;;5093787;28;20181;-69
2022/05/15 12:52:58;;;;;;;4.05;2.05;;;22.60;51.00;;;;;;5094483;28;20582;-68
2022/05/15 12:55:29;;;;;;;4.30;1.80;;;22.60;51.00;;;;;;5094413;28;20238;-70
2022/05/15 12:57:55;;;;;;;4.38;2.13;;;22.60;51.00;;;;;;5094646;28;20262;-70
2022/05/15 13:00:29;;;;;;;3.53;1.85;;;22.60;50.90;;;;;;5094257;28;20180;-70
2022/05/15 13:02:59;;;;;;;3.60;1.98;;;22.70;51.00;;;;;;5093165;28;20182;-69
2022/05/15 13:05:33;;;;;;;3.90;2.10;;;22.70;51.00;;;;;;5094773;28;20241;-70
2022/05/15 13:08:01;;;;;;;4.47;1.90;;;22.70;50.90;;;;;;5093918;28;20247;-68
2022/05/15 13:10:27;;;;;;;3.00;2.00;;;22.70;50.90;;;;;;5094828;28;20177;-70
2022/05/15 13:12:57;;;;;;;3.55;1.90;;;22.70;50.80;;;;;;5094466;28;20197;-70
2022/05/15 13:15:24;;;;;;;4.22;1.92;;;22.70;50.80;;;;;;5092612;28;20216;-72
2022/05/15 13:17:50;;;;;;;3.40;1.80;;;22.80;50.90;;;;;;5092711;28;20237;-71